Time;durP1;ratioP1;P1;durP2;ratioP2;P2;SDS_P1;SDS_P2;PMS_P1;PMS_P2;Temp;Humidity;BMP_temperature;BMP_pressure;BME280_temperature;BME280_humidity;BME280_pressure;Samples;Min_cycle;Max_cycle;Signal;HPM_P1;HPM_P2
2024/01/06 00:03:51;;;;;;;;;;;5.90;58.60;;;4.26;61.90;100180.00;12245969;19;19919;-85
2024/01/06 00:07:53;;;;;;;;;;;6.00;58.60;;;4.17;61.94;100165.69;12253385;19;19918;-85
2024/01/06 00:11:54;;;;;;;;;;;6.20;58.70;;;4.39;61.88;100204.50;12258772;19;19915;-85
2024/01/06 00:15:55;;;;;;;;;;;6.10;58.60;;;4.30;61.86;100188.50;12257196;19;19923;-85
2024/01/06 00:19:57;;;;;;;;;;;6.00;58.50;;;4.41;62.00;100197.53;12258507;19;19919;-85
2024/01/06 00:23:58;;;;;;;;;;;5.90;58.30;;;4.07;61.79;100135.94;12256390;19;19918;-85
2024/01/06 00:27:59;;;;;;;;;;;6.00;58.30;;;4.37;61.83;100198.53;12251698;19;19922;-85
2024/01/06 00:32:01;;;;;;;;;;;5.90;58.40;;;4.30;62.04;100194.50;12256149;19;20284;-85
2024/01/06 00:36:03;;;;;;;;;;;5.90;58.40;;;4.28;62.07;100185.97;12255561;19;19907;-85
2024/01/06 00:40:05;;;;;;;;;;;5.90;58.50;;;4.25;62.04;100180.09;12256393;19;19974;-86
2024/01/06 00:44:06;;;;;;;;;;;5.90;58.40;;;4.31;61.80;100198.78;12257023;19;20249;-85
2024/01/06 00:48:08;;;;;;;;;;;5.90;58.30;;;4.30;62.03;100204.84;12252156;19;19923;-85
2024/01/06 00:52:09;;;;;;;;;;;5.90;58.20;;;4.21;62.15;100206.03;12256931;19;19989;-85
2024/01/06 00:56:11;;;;;;;;;;;5.90;58.30;;;4.20;61.87;100198.34;12253056;19;19923;-85
2024/01/06 01:00:13;;;;;;;;;;;5.90;58.40;;;4.22;62.07;100212.06;12254205;19;19927;-85
2024/01/06 01:04:14;;;;;;;;;;;5.80;58.30;;;4.17;61.95;100204.47;12256382;19;19915;-85
2024/01/06 01:08:16;;;;;;;;;;;6.10;58.30;;;4.29;61.93;100223.00;12250919;19;19926;-85
2024/01/06 01:12:19;;;;;;;;;;;6.20;58.60;;;4.22;62.00;100217.22;12254203;19;20333;-86
2024/01/06 01:16:21;;;;;;;;;;;5.90;58.50;;;4.15;62.06;100213.16;12250240;19;19919;-85
2024/01/06 01:20:23;;;;;;;;;;;5.90;58.40;;;4.11;61.98;100209.03;12252604;19;19938;-85
2024/01/06 01:24:24;;;;;;;;;;;5.80;58.20;;;4.08;62.03;100219.44;12254640;19;19926;-85
2024/01/06 01:28:26;;;;;;;;;;;5.80;58.20;;;4.25;62.14;100236.94;12249993;19;19929;-86
2024/01/06 01:32:27;;;;;;;;;;;5.80;58.30;;;4.08;62.17;100209.13;12253724;19;20358;-85
2024/01/06 01:36:28;;;;;;;;;;;5.80;58.50;;;4.12;62.07;100223.63;12251364;19;19919;-85
2024/01/06 01:40:30;;;;;;;;;;;6.10;58.40;;;4.21;62.06;100237.06;12254296;19;20327;-85
2024/01/06 01:44:31;;;;;;;;;;;5.80;58.20;;;4.22;61.95;100246.47;12254515;19;19931;-85
2024/01/06 01:48:34;;;;;;;;;;;5.80;58.20;;;4.12;62.13;100227.03;12249753;19;19923;-85
2024/01/06 01:52:36;;;;;;;;;;;5.80;58.50;;;4.10;62.10;100233.16;12251919;19;19934;-85
2024/01/06 01:56:39;;;;;;;;;;;5.80;58.30;;;4.13;61.97;100248.53;12249599;19;19932;-85
2024/01/06 02:00:41;;;;;;;;;;;5.80;58.60;;;4.14;61.87;100258.00;12251143;19;19982;-85
2024/01/06 02:04:45;;;;;;;;;;;5.70;58.20;;;4.02;62.21;100237.75;12250315;19;19944;-85
2024/01/06 02:08:46;;;;;;;;;;;5.70;58.40;;;3.87;62.08;100216.75;12244637;19;19931;-85
2024/01/06 02:12:48;;;;;;;;;;;5.70;58.40;;;3.99;62.03;100239.56;12248245;19;19970;-86
2024/01/06 02:16:50;;;;;;;;;;;5.70;58.30;;;4.05;61.92;100248.84;12249476;19;19907;-85
2024/01/06 02:20:52;;;;;;;;;;;5.70;58.40;;;4.06;62.28;100253.09;12251071;19;19923;-85
2024/01/06 02:24:54;;;;;;;;;;;5.70;58.30;;;3.93;62.37;100238.94;12250064;19;20369;-85
2024/01/06 02:28:56;;;;;;;;;;;5.70;58.40;;;4.11;62.06;100256.38;12243893;19;19970;-85
2024/01/06 02:32:57;;;;;;;;;;;5.70;58.50;;;3.92;62.19;100232.09;12249939;19;19923;-85
2024/01/06 02:36:58;;;;;;;;;;;5.70;58.40;;;4.12;62.15;100263.22;12245897;19;19910;-86
2024/01/06 02:41:00;;;;;;;;;;;5.70;58.30;;;4.03;62.22;100253.22;12250062;19;20284;-86
2024/01/06 02:45:01;;;;;;;;;;;5.70;58.40;;;4.19;61.94;100284.53;12250197;19;19914;-85
2024/01/06 02:49:02;;;;;;;;;;;5.70;58.40;;;4.14;62.09;100271.75;12247579;19;20527;-85
2024/01/06 02:53:04;;;;;;;;;;;5.80;58.50;;;3.80;62.00;100220.44;12249800;19;19918;-85
2024/01/06 02:57:05;;;;;;;;;;;5.70;58.30;;;4.17;62.12;100278.56;12246529;19;19917;-86
2024/01/06 03:01:07;;;;;;;;;;;5.70;58.40;;;4.15;62.26;100276.03;12247757;19;19925;-86
2024/01/06 03:05:10;;;;;;;;;;;5.70;58.50;;;4.10;62.21;100277.09;12248367;19;19925;-85
2024/01/06 03:09:11;;;;;;;;;;;5.70;58.40;;;3.88;61.98;100241.69;12246972;19;19910;-85
2024/01/06 03:13:13;;;;;;;;;;;5.80;58.50;;;4.19;62.02;100290.53;12248763;19;19942;-85
2024/01/06 03:17:14;;;;;;;;;;;5.80;58.40;;;4.11;62.06;100282.22;12246476;19;19915;-86
2024/01/06 03:21:20;;;;;;;;;;;5.70;58.50;;;4.01;62.16;100275.69;12248591;19;19926;-85
2024/01/06 03:25:21;;;;;;;;;;;5.70;58.30;;;4.06;61.99;100283.28;12246592;19;19923;-86
2024/01/06 03:29:23;;;;;;;;;;;5.70;58.50;;;4.15;62.22;100288.09;12245161;19;19938;-85
2024/01/06 03:33:24;;;;;;;;;;;5.80;58.60;;;4.18;62.14;100300.91;12247839;19;19989;-85
2024/01/06 03:37:26;;;;;;;;;;;5.70;58.80;;;4.03;62.08;100293.72;12245791;19;19935;-86
2024/01/06 03:41:27;;;;;;;;;;;5.70;58.70;;;4.07;62.29;100303.03;12245601;19;20259;-85
2024/01/06 03:45:29;;;;;;;;;;;5.70;58.60;;;4.11;62.24;100318.38;12247036;19;19919;-85
2024/01/06 03:49:31;;;;;;;;;;;5.80;58.60;;;4.17;62.14;100322.50;12245544;19;20361;-85
2024/01/06 03:53:32;;;;;;;;;;;5.70;58.50;;;4.16;62.10;100320.81;12246985;19;19915;-85
2024/01/06 03:57:34;;;;;;;;;;;5.70;58.50;;;4.11;62.24;100330.47;12245742;19;19907;-85
2024/01/06 04:01:35;;;;;;;;;;;5.70;58.50;;;4.07;62.03;100315.94;12246000;19;19982;-85
2024/01/06 04:05:37;;;;;;;;;;;5.70;58.50;;;4.06;62.10;100309.94;12242768;19;20311;-85
2024/01/06 04:09:42;;;;;;;;;;;5.70;58.40;;;3.92;62.16;100296.69;12242594;19;19915;-85
2024/01/06 04:13:43;;;;;;;;;;;5.70;58.50;;;4.13;61.93;100338.97;12244792;19;19975;-85
2024/01/06 04:17:48;;;;;;;;;;;5.70;58.40;;;4.10;62.02;100326.19;12241777;19;20340;-85
2024/01/06 04:21:50;;;;;;;;;;;5.70;58.40;;;3.96;62.15;100308.56;12244684;19;19923;-85
2024/01/06 04:25:52;;;;;;;;;;;5.70;58.30;;;3.98;62.13;100322.28;12243996;19;19915;-85
2024/01/06 04:29:54;;;;;;;;;;;5.60;58.40;;;4.07;62.15;100336.63;12243699;19;20325;-85
2024/01/06 04:33:55;;;;;;;;;;;5.70;58.40;;;4.01;62.18;100329.09;12244708;19;20230;-85
2024/01/06 04:37:57;;;;;;;;;;;5.70;58.50;;;4.13;62.08;100339.84;12242525;19;19911;-85
2024/01/06 04:41:58;;;;;;;;;;;5.90;58.50;;;4.06;62.12;100355.63;12242644;19;19930;-85
2024/01/06 04:46:00;;;;;;;;;;;5.70;58.40;;;4.14;62.08;100363.94;12241434;19;19911;-85
2024/01/06 04:50:01;;;;;;;;;;;5.70;58.40;;;4.07;62.20;100365.03;12240518;19;19930;-85
2024/01/06 04:54:03;;;;;;;;;;;5.70;58.40;;;4.03;62.05;100366.91;12256225;19;20289;-85
2024/01/06 04:58:04;;;;;;;;;;;5.70;58.30;;;4.13;62.27;100377.75;12251565;19;19914;-86
2024/01/06 05:02:06;;;;;;;;;;;5.90;58.40;;;3.94;62.21;100354.28;12253847;19;19948;-85
2024/01/06 05:06:07;;;;;;;;;;;5.70;58.30;;;3.99;62.06;100352.38;12251849;19;19942;-85
2024/01/06 05:10:09;;;;;;;;;;;5.80;58.20;;;3.96;62.21;100361.06;12250159;19;19935;-85
2024/01/06 05:14:11;;;;;;;;;;;5.70;58.20;;;4.13;62.05;100388.06;12254451;19;20358;-85
2024/01/06 05:18:12;;;;;;;;;;;5.70;58.60;;;3.99;62.04;100373.88;12252867;19;19918;-85
2024/01/06 05:22:14;;;;;;;;;;;5.70;58.70;;;4.06;62.17;100391.78;12253039;19;19914;-85
2024/01/06 05:26:15;;;;;;;;;;;5.70;58.50;;;3.78;62.03;100346.22;12250638;19;19923;-85
2024/01/06 05:30:18;;;;;;;;;;;5.80;58.60;;;4.03;62.27;100397.06;12249279;19;19995;-85
2024/01/06 05:34:19;;;;;;;;;;;5.60;58.50;;;4.06;62.17;100402.13;12252727;19;19967;-85
2024/01/06 05:38:20;;;;;;;;;;;5.70;58.40;;;4.05;62.42;100403.00;12250172;19;19918;-85
2024/01/06 05:42:22;;;;;;;;;;;5.70;58.60;;;4.14;62.20;100415.63;12253503;19;20330;-85
2024/01/06 05:46:26;;;;;;;;;;;5.70;58.60;;;4.01;62.39;100404.00;12249718;19;19941;-85
2024/01/06 05:50:27;;;;;;;;;;;5.70;58.50;;;4.02;62.15;100418.59;12248634;19;20325;-85
2024/01/06 05:54:29;;;;;;;;;;;5.70;58.50;;;4.11;62.21;100434.66;12252308;19;19935;-85
2024/01/06 05:58:30;;;;;;;;;;;5.70;58.50;;;4.07;62.18;100429.63;12247706;19;19923;-85
2024/01/06 06:02:33;;;;;;;;;;;5.70;58.40;;;4.05;62.05;100436.56;12250720;19;19914;-85
2024/01/06 06:06:34;;;;;;;;;;;5.70;58.60;;;4.01;62.10;100440.19;12250471;19;20265;-85
2024/01/06 06:10:59;;;;;;;;;;;5.60;58.60;;;3.96;62.06;100438.56;12247115;19;20341;-85
2024/01/06 06:15:03;;;;;;;;;;;5.60;58.30;;;3.94;62.07;100449.84;12251347;19;20317;-85
2024/01/06 06:19:04;;;;;;;;;;;5.60;58.20;;;3.89;62.24;100462.94;12250810;19;19907;-85
2024/01/06 06:23:06;;;;;;;;;;;5.50;58.90;;;3.86;62.37;100457.88;12249997;19;20341;-85
2024/01/06 06:27:07;;;;;;;;;;;5.50;59.10;;;3.62;62.28;100428.50;12249220;19;20002;-85
2024/01/06 06:31:08;;;;;;;;;;;5.70;59.10;;;3.88;62.39;100473.31;12249102;19;19914;-85
2024/01/06 06:35:10;;;;;;;;;;;5.50;59.00;;;3.61;62.16;100425.94;12249975;19;19941;-85
2024/01/06 06:39:11;;;;;;;;;;;5.50;58.70;;;3.76;62.37;100464.22;12249928;19;20353;-85
2024/01/06 06:43:14;;;;;;;;;;;5.50;58.90;;;3.60;62.35;100440.59;12250732;19;20269;-85
2024/01/06 06:47:15;;;;;;;;;;;5.50;58.90;;;3.73;62.31;100474.63;12242675;19;19926;-85
2024/01/06 06:51:16;;;;;;;;;;;5.50;58.80;;;3.80;62.16;100495.94;12247298;19;20285;-85
2024/01/06 06:55:18;;;;;;;;;;;5.50;58.60;;;3.84;62.20;100513.03;12247272;19;19923;-85
2024/01/06 06:59:19;;;;;;;;;;;5.70;58.70;;;3.72;62.46;100509.91;12247938;19;19930;-85
2024/01/06 07:03:21;;;;;;;;;;;5.50;58.80;;;3.70;62.37;100521.19;12241156;19;20015;-85
2024/01/06 07:07:22;;;;;;;;;;;5.60;59.10;;;3.80;62.19;100545.00;12248285;19;19918;-86
2024/01/06 07:11:24;;;;;;;;;;;5.40;58.80;;;3.67;62.34;100531.59;12251648;19;19915;-85
2024/01/06 07:15:25;;;;;;;;;;;5.40;58.80;;;3.67;62.14;100547.97;12248532;19;19919;-86
2024/01/06 07:19:27;;;;;;;;;;;5.40;58.70;;;3.71;62.33;100566.78;12245864;19;19910;-85
2024/01/06 07:23:28;;;;;;;;;;;5.70;59.20;;;3.72;62.46;100574.47;12245050;19;19934;-86
2024/01/06 07:27:30;;;;;;;;;;;5.30;59.00;;;3.72;62.46;100576.22;12244418;19;19978;-85
2024/01/06 07:31:31;;;;;;;;;;;5.40;58.90;;;3.58;62.32;100557.72;12244834;19;19923;-85
2024/01/06 07:35:32;;;;;;;;;;;5.30;59.20;;;3.75;62.33;100594.19;12246603;19;19929;-84
2024/01/06 07:39:34;;;;;;;;;;;5.30;58.80;;;3.69;62.39;100578.91;12243369;19;20352;-84
2024/01/06 07:43:35;;;;;;;;;;;5.20;58.60;;;3.61;62.28;100580.84;12245702;19;19966;-84
2024/01/06 07:47:38;;;;;;;;;;;5.30;58.40;;;3.58;62.31;100586.94;12242277;19;20249;-85
2024/01/06 07:51:40;;;;;;;;;;;5.30;58.50;;;3.65;62.39;100598.81;12246171;19;19942;-83
2024/01/06 07:55:41;;;;;;;;;;;5.30;58.50;;;3.72;62.42;100617.53;12244833;19;19918;-84
2024/01/06 07:59:43;;;;;;;;;;;5.30;58.80;;;3.70;62.29;100617.59;12246622;19;19911;-84
2024/01/06 08:03:44;;;;;;;;;;;5.30;58.70;;;3.30;62.15;100567.09;12245421;19;19915;-85
2024/01/06 08:07:46;;;;;;;;;;;5.30;58.70;;;3.66;62.16;100640.97;12243576;19;19914;-84
2024/01/06 08:11:48;;;;;;;;;;;5.40;58.60;;;3.50;62.23;100628.47;12246628;19;19966;-83
2024/01/06 08:15:50;;;;;;;;;;;5.20;58.50;;;3.53;62.30;100638.69;12243053;19;19906;-84
2024/01/06 08:19:51;;;;;;;;;;;5.20;59.00;;;3.54;62.37;100647.31;12244418;19;19919;-83
2024/01/06 08:23:53;;;;;;;;;;;5.20;58.70;;;3.48;62.41;100647.47;12244528;19;19943;-83
2024/01/06 08:27:54;;;;;;;;;;;5.40;59.20;;;3.48;62.50;100663.81;12249176;19;19923;-83
2024/01/06 08:31:56;;;;;;;;;;;5.10;58.80;;;3.55;62.52;100672.25;12253603;19;20257;-84
2024/01/06 08:35:57;;;;;;;;;;;5.40;59.10;;;3.50;62.49;100672.34;12255770;19;19915;-83
2024/01/06 08:39:59;;;;;;;;;;;5.10;59.10;;;3.54;62.42;100686.88;12256038;19;19935;-83
2024/01/06 08:44:00;;;;;;;;;;;5.10;58.90;;;3.55;62.46;100675.66;12257962;19;19956;-85
2024/01/06 08:48:02;;;;;;;;;;;5.10;58.80;;;3.54;62.31;100688.63;12249235;19;19942;-83
2024/01/06 08:52:04;;;;;;;;;;;5.10;58.90;;;3.53;62.56;100685.16;12255897;19;19926;-83
2024/01/06 08:56:06;;;;;;;;;;;5.10;59.00;;;3.41;62.49;100687.25;12253966;19;19948;-84
2024/01/06 09:00:09;;;;;;;;;;;5.10;58.70;;;3.42;62.41;100694.94;12256013;19;19914;-83
2024/01/06 09:04:12;;;;;;;;;;;5.10;59.10;;;3.37;62.33;100696.78;12253408;19;19923;-83
2024/01/06 09:08:13;;;;;;;;;;;5.00;59.10;;;3.32;62.40;100703.81;12253322;19;19960;-82
2024/01/06 09:12:15;;;;;;;;;;;5.00;59.10;;;3.31;62.54;100713.28;12251933;19;19922;-82
2024/01/06 09:16:16;;;;;;;;;;;5.00;58.70;;;3.22;62.50;100712.69;12254789;19;20321;-82
2024/01/06 09:20:22;;;;;;;;;;;4.90;59.00;;;3.27;62.52;100724.59;12253674;19;19994;-82
2024/01/06 09:24:24;;;;;;;;;;;4.90;58.90;;;3.01;62.47;100681.38;12255132;19;19918;-81
2024/01/06 09:28:25;;;;;;;;;;;5.00;58.80;;;3.18;62.37;100726.53;12250344;19;19911;-83
2024/01/06 09:32:26;;;;;;;;;;;4.90;59.30;;;3.28;62.66;100743.50;12251871;19;19914;-82
2024/01/06 09:36:28;;;;;;;;;;;4.90;59.30;;;3.23;62.58;100741.00;12248508;19;20369;-82
2024/01/06 09:40:31;;;;;;;;;;;4.90;59.00;;;3.31;62.59;100749.41;12252463;19;19921;-82
2024/01/06 09:44:33;;;;;;;;;;;4.90;59.00;;;3.28;62.57;100749.50;12254395;19;19923;-82
2024/01/06 09:48:39;;;;;;;;;;;4.90;59.60;;;3.34;62.44;100758.81;12249136;19;19919;-83
2024/01/06 09:52:41;;;;;;;;;;;4.90;59.10;;;3.27;62.42;100746.97;12252439;19;19919;-84
2024/01/06 09:56:45;;;;;;;;;;;4.90;58.70;;;3.23;62.51;100747.91;12248772;19;19929;-84
2024/01/06 10:00:49;;;;;;;;;;;5.00;59.40;;;3.35;62.73;100773.44;12251365;19;19910;-85
2024/01/06 10:04:51;;;;;;;;;;;4.90;59.20;;;3.26;62.37;100765.91;12252120;19;19978;-85
2024/01/06 10:08:53;;;;;;;;;;;4.90;59.00;;;3.26;62.30;100771.91;12248096;19;19987;-84
2024/01/06 10:12:55;;;;;;;;;;;4.90;59.00;;;3.35;62.62;100786.34;12249136;19;19919;-84
2024/01/06 10:16:56;;;;;;;;;;;5.20;59.00;;;3.33;62.46;100788.94;12248587;19;20304;-84
2024/01/06 10:20:58;;;;;;;;;;;5.00;58.90;;;3.24;62.51;100770.25;12250352;19;20248;-84
2024/01/06 10:25:00;;;;;;;;;;;5.00;58.80;;;3.29;62.54;100771.84;12245825;19;19910;-84
2024/01/06 10:29:02;;;;;;;;;;;4.90;58.60;;;3.30;62.42;100789.03;12246355;19;20256;-84
2024/01/06 10:33:08;;;;;;;;;;;4.90;58.90;;;3.27;62.71;100790.84;12250726;19;20008;-84
2024/01/06 10:37:10;;;;;;;;;;;4.90;58.80;;;3.31;62.49;100795.88;12245858;19;19943;-84
2024/01/06 10:41:12;;;;;;;;;;;4.90;58.90;;;3.17;62.43;100784.19;12249014;19;19911;-84
2024/01/06 10:45:14;;;;;;;;;;;5.10;59.20;;;3.26;62.61;100802.03;12248058;19;19922;-84
2024/01/06 10:49:17;;;;;;;;;;;4.90;58.60;;;3.14;62.56;100777.38;12246059;19;19926;-83
2024/01/06 10:53:20;;;;;;;;;;;4.90;58.70;;;3.21;62.39;100794.38;12246932;19;19919;-84
2024/01/06 10:57:21;;;;;;;;;;;4.90;58.90;;;3.14;62.45;100782.53;12246296;19;19919;-84
2024/01/06 11:01:24;;;;;;;;;;;5.20;59.10;;;3.26;62.45;100807.19;12251073;19;19930;-84
2024/01/06 11:05:27;;;;;;;;;;;4.90;58.60;;;3.21;62.34;100804.72;12244421;19;19915;-84
2024/01/06 11:09:34;;;;;;;;;;;5.10;58.80;;;3.11;62.56;100803.25;12248072;19;20010;-84
2024/01/06 11:13:38;;;;;;;;;;;5.20;58.60;;;3.15;62.56;100807.44;12245785;19;20298;-84
2024/01/06 11:17:58;;;;;;;;;;;5.20;58.60;;;3.03;62.59;100798.25;12245192;19;19944;-84
2024/01/06 11:22:17;;;;;;;;;;;4.80;58.70;;;3.17;62.43;100812.56;12246977;19;19986;-85
2024/01/06 11:26:19;;;;;;;;;;;4.80;59.00;;;2.95;62.46;100783.84;12245030;19;19919;-84
2024/01/06 11:30:24;;;;;;;;;;;4.80;58.70;;;3.15;62.55;100809.19;12246242;19;19915;-84
2024/01/06 11:34:26;;;;;;;;;;;4.70;58.80;;;3.05;62.76;100793.91;12245542;19;19939;-85
2024/01/06 11:38:27;;;;;;;;;;;4.80;58.80;;;3.08;62.57;100801.59;12247708;19;19918;-84
2024/01/06 11:42:33;;;;;;;;;;;4.80;58.80;;;3.05;62.59;100799.09;12246959;19;20380;-84
2024/01/06 11:46:35;;;;;;;;;;;4.70;58.90;;;3.07;62.56;100796.44;12247666;19;20341;-84
2024/01/06 11:50:38;;;;;;;;;;;5.00;58.80;;;3.02;62.52;100795.69;12245104;19;20337;-84
2024/01/06 11:54:40;;;;;;;;;;;4.70;58.40;;;2.79;62.35;100754.97;12245728;19;19925;-85
2024/01/06 11:58:42;;;;;;;;;;;4.70;58.40;;;3.05;62.56;100811.09;12248475;19;19925;-85
2024/01/06 12:02:43;;;;;;;;;;;4.70;58.70;;;2.76;62.70;100765.38;12259871;19;19931;-86
2024/01/06 12:06:44;;;;;;;;;;;4.70;58.80;;;2.95;62.59;100807.91;12255058;19;20349;-85
2024/01/06 12:10:46;;;;;;;;;;;4.60;58.60;;;2.91;62.34;100802.84;12263867;19;19942;-86
2024/01/06 12:14:47;;;;;;;;;;;4.80;58.70;;;2.97;62.55;100813.00;12259894;19;19943;-85
2024/01/06 12:18:49;;;;;;;;;;;4.70;58.70;;;2.94;62.38;100819.09;12249486;19;20332;-84
2024/01/06 12:22:51;;;;;;;;;;;4.60;58.60;;;2.99;62.45;100835.31;12257289;19;20017;-84
2024/01/06 12:26:55;;;;;;;;;;;4.60;58.50;;;2.91;62.58;100826.06;12255192;19;20274;-84
2024/01/06 12:30:57;;;;;;;;;;;4.80;58.40;;;2.89;62.53;100818.38;12260112;19;19966;-84
2024/01/06 12:34:59;;;;;;;;;;;4.60;58.40;;;2.86;62.44;100819.28;12256327;19;19938;-84
2024/01/06 12:39:01;;;;;;;;;;;4.60;58.30;;;2.88;62.60;100832.97;12253429;19;20249;-84
2024/01/06 12:43:04;;;;;;;;;;;4.60;58.50;;;2.81;62.32;100828.00;12256526;19;19911;-84
2024/01/06 12:47:06;;;;;;;;;;;4.60;58.30;;;2.77;62.43;100831.50;12253030;19;21698;-84
2024/01/06 12:51:07;;;;;;;;;;;4.60;58.20;;;2.83;62.55;100844.25;12256902;19;19927;-84
2024/01/06 12:55:09;;;;;;;;;;;4.60;58.10;;;2.54;62.57;100799.34;12254984;19;19927;-84
2024/01/06 12:59:11;;;;;;;;;;;4.50;58.10;;;2.73;62.37;100845.34;12257853;19;19941;-84
2024/01/06 13:03:14;;;;;;;;;;;4.50;58.10;;;2.78;62.42;100846.09;12257007;19;19922;-84
2024/01/06 13:07:16;;;;;;;;;;;4.50;58.20;;;2.58;62.42;100843.94;12253144;19;19938;-84
2024/01/06 13:11:18;;;;;;;;;;;4.50;58.20;;;2.76;62.56;100883.97;12252517;19;19938;-84
2024/01/06 13:15:19;;;;;;;;;;;4.80;58.30;;;2.44;62.46;100834.75;12254396;19;19930;-84
2024/01/06 13:19:21;;;;;;;;;;;4.50;58.20;;;2.78;62.52;100892.50;12257257;19;19990;-84
2024/01/06 13:23:22;;;;;;;;;;;4.70;58.30;;;2.71;62.70;100885.78;12255529;19;20328;-84
2024/01/06 13:27:23;;;;;;;;;;;4.50;58.10;;;2.76;62.57;100904.59;12251159;19;19978;-84
2024/01/06 13:31:26;;;;;;;;;;;4.50;58.00;;;2.65;62.49;100890.19;12256123;19;19922;-84
2024/01/06 13:35:28;;;;;;;;;;;4.80;58.10;;;2.68;62.66;100898.75;12255992;19;19919;-85
2024/01/06 13:39:30;;;;;;;;;;;4.70;58.10;;;2.66;62.65;100899.59;12256148;19;20226;-84
2024/01/06 13:43:31;;;;;;;;;;;4.40;58.10;;;2.73;62.50;100914.94;12251504;19;19942;-84
2024/01/06 13:47:33;;;;;;;;;;;4.40;58.10;;;2.68;62.59;100903.91;12250537;19;20245;-85
2024/01/06 13:51:35;;;;;;;;;;;4.40;58.00;;;2.62;62.72;100907.44;12253349;19;19934;-84
2024/01/06 13:55:37;;;;;;;;;;;4.60;58.20;;;2.74;62.52;100927.81;12252357;19;19999;-84
2024/01/06 13:59:42;;;;;;;;;;;4.40;58.20;;;2.58;62.52;100911.81;12255595;19;19990;-84
2024/01/06 14:03:43;;;;;;;;;;;4.50;58.10;;;2.66;62.59;100930.53;12255479;19;19911;-84
2024/01/06 14:07:48;;;;;;;;;;;4.50;58.00;;;2.61;62.75;100924.63;12250420;19;19922;-84
2024/01/06 14:11:49;;;;;;;;;;;4.60;58.10;;;2.56;62.54;100929.00;12250555;19;19922;-84
2024/01/06 14:15:51;;;;;;;;;;;4.30;58.00;;;2.60;62.50;100929.81;12249634;19;20388;-84
2024/01/06 14:19:52;;;;;;;;;;;4.30;57.90;;;2.32;62.55;100890.81;12248411;19;19922;-84
2024/01/06 14:23:54;;;;;;;;;;;4.30;58.00;;;2.56;62.58;100939.31;12250589;19;20314;-84
2024/01/06 14:27:55;;;;;;;;;;;4.30;58.00;;;2.59;62.69;100944.44;12247542;19;19919;-84
2024/01/06 14:31:57;;;;;;;;;;;4.30;58.10;;;2.58;62.46;100942.72;12249421;19;19970;-84
2024/01/06 14:35:59;;;;;;;;;;;4.30;58.10;;;2.59;62.47;100954.75;12251102;19;19919;-87
2024/01/06 14:40:05;;;;;;;;;;;4.40;58.10;;;2.57;62.65;100966.81;12250433;19;19918;-86
2024/01/06 14:44:07;;;;;;;;;;;4.30;58.10;;;2.64;62.49;100970.13;12249072;19;20352;-85
2024/01/06 14:48:08;;;;;;;;;;;4.30;58.00;;;2.39;62.55;100931.06;12245347;19;19942;-85
2024/01/06 14:52:10;;;;;;;;;;;4.30;58.00;;;2.68;62.54;100995.00;12245623;19;20269;-85
2024/01/06 14:56:12;;;;;;;;;;;4.40;58.10;;;2.57;62.62;100976.28;12248736;19;19915;-85
2024/01/06 15:00:13;;;;;;;;;;;4.40;58.10;;;2.68;62.48;100994.13;12248851;19;20364;-84
2024/01/06 15:04:15;;;;;;;;;;;4.40;58.00;;;2.56;62.44;100975.41;12249701;19;19911;-85
2024/01/06 15:08:16;;;;;;;;;;;4.40;58.00;;;2.69;62.58;101012.16;12245738;19;19929;-84
2024/01/06 15:12:18;;;;;;;;;;;4.40;57.90;;;2.69;62.73;101006.13;12248445;19;20253;-84
2024/01/06 15:16:19;;;;;;;;;;;4.40;58.30;;;2.62;62.81;100998.53;12244765;19;19963;-84
2024/01/06 15:20:22;;;;;;;;;;;4.50;58.30;;;2.79;62.75;101028.31;12251082;19;19922;-84
2024/01/06 15:24:24;;;;;;;;;;;4.40;57.90;;;2.73;62.49;101029.28;12246156;19;19915;-84
2024/01/06 15:28:25;;;;;;;;;;;4.40;57.80;;;2.74;62.65;101027.53;12247041;19;19990;-85
2024/01/06 15:32:27;;;;;;;;;;;4.40;57.60;;;2.57;62.62;101007.22;12248719;19;20645;-84
2024/01/06 15:36:28;;;;;;;;;;;4.60;57.80;;;2.59;62.63;101011.47;12247280;19;19923;-84
2024/01/06 15:40:30;;;;;;;;;;;4.40;57.70;;;2.57;62.41;101017.53;12249120;19;19919;-84
2024/01/06 15:44:33;;;;;;;;;;;4.40;57.70;;;2.59;62.63;101018.34;12246254;19;19941;-85
2024/01/06 15:48:36;;;;;;;;;;;4.40;57.70;;;2.38;62.78;100980.91;12245382;19;19934;-85
2024/01/06 15:52:37;;;;;;;;;;;4.40;57.80;;;2.63;62.80;101025.16;12249464;19;19998;-85
2024/01/06 15:56:38;;;;;;;;;;;4.40;57.90;;;2.62;62.42;101026.88;12245746;19;20329;-85
2024/01/06 16:00:40;;;;;;;;;;;4.40;57.60;;;2.68;62.76;101035.41;12243662;19;19933;-85
2024/01/06 16:04:41;;;;;;;;;;;4.40;57.70;;;2.68;62.72;101043.97;12247905;19;19933;-85
2024/01/06 16:08:42;;;;;;;;;;;4.40;57.80;;;2.74;62.63;101059.31;12243166;19;19930;-85
2024/01/06 16:12:44;;;;;;;;;;;4.40;57.70;;;2.57;62.34;101038.16;12248554;19;20660;-85
2024/01/06 16:16:45;;;;;;;;;;;4.40;57.60;;;2.45;62.60;101034.03;12244559;19;20388;-85
2024/01/06 16:20:47;;;;;;;;;;;4.40;57.40;;;2.56;62.36;101054.47;12247369;19;19922;-85
2024/01/06 16:24:49;;;;;;;;;;;4.50;57.50;;;2.67;62.66;101086.09;12246615;19;19925;-85
2024/01/06 16:28:50;;;;;;;;;;;4.60;57.50;;;2.34;62.51;101035.94;12241298;19;19926;-85
2024/01/06 16:32:52;;;;;;;;;;;4.60;57.50;;;2.64;62.46;101086.97;12245137;19;19919;-86
2024/01/06 16:36:53;;;;;;;;;;;4.60;57.50;;;2.65;62.54;101093.84;12231695;19;20341;-85
2024/01/06 16:40:55;;;;;;;;;;;4.50;57.40;;;2.68;62.53;101105.00;12242754;19;19911;-85
2024/01/06 16:44:56;;;;;;;;;;;4.30;57.00;;;2.66;62.30;101107.59;12241357;19;20347;-85
2024/01/06 16:48:58;;;;;;;;;;;4.40;57.30;;;2.58;62.43;101106.88;12248008;19;19917;-85
2024/01/06 16:52:59;;;;;;;;;;;4.30;56.90;;;2.64;62.50;101117.91;12252388;19;19919;-85
2024/01/06 16:57:03;;;;;;;;;;;4.30;57.10;;;2.55;62.28;101112.94;12249799;19;19930;-85
2024/01/06 17:01:05;;;;;;;;;;;4.50;57.20;;;2.26;62.40;101061.00;12253871;19;19930;-85
2024/01/06 17:05:10;;;;;;;;;;;4.30;57.00;;;2.53;62.56;101104.34;12250402;19;19930;-84
2024/01/06 17:09:12;;;;;;;;;;;4.30;56.90;;;2.52;62.24;101106.97;12251994;19;19919;-85
2024/01/06 17:13:13;;;;;;;;;;;4.30;56.70;;;2.64;62.65;101135.13;12250699;19;20252;-85
2024/01/06 17:17:15;;;;;;;;;;;4.60;57.10;;;2.64;62.37;101148.00;12248133;19;20608;-85
2024/01/06 17:21:17;;;;;;;;;;;4.30;57.20;;;2.42;62.39;101107.09;12254011;19;20254;-85
2024/01/06 17:25:18;;;;;;;;;;;4.30;57.00;;;2.60;62.43;101142.06;12250500;19;19983;-85
2024/01/06 17:29:20;;;;;;;;;;;4.30;57.10;;;2.51;62.42;101120.72;12249253;19;20495;-85
2024/01/06 17:33:21;;;;;;;;;;;4.50;57.20;;;2.60;62.44;101138.63;12248070;19;19933;-85
2024/01/06 17:37:23;;;;;;;;;;;4.30;56.10;;;2.61;62.42;101146.34;12246486;19;20322;-85
2024/01/06 17:41:24;;;;;;;;;;;4.50;56.70;;;2.58;62.36;101151.53;12241590;19;19952;-85
2024/01/06 17:45:26;;;;;;;;;;;4.30;56.40;;;2.54;62.41;101147.31;12246547;19;19915;-84
2024/01/06 17:49:27;;;;;;;;;;;4.30;56.60;;;2.38;62.43;101138.13;12243909;19;19925;-84
2024/01/06 17:53:29;;;;;;;;;;;4.30;56.60;;;2.20;62.18;101111.72;12248105;19;19915;-84
2024/01/06 17:57:34;;;;;;;;;;;4.30;56.20;;;2.56;62.21;101173.06;12242618;19;19919;-84
2024/01/06 18:01:36;;;;;;;;;;;4.40;56.80;;;2.46;62.52;101176.63;12246030;19;19927;-85
2024/01/06 18:05:37;;;;;;;;;;;4.20;56.60;;;2.41;62.29;101171.56;12243974;19;19982;-85
2024/01/06 18:09:38;;;;;;;;;;;4.50;56.00;;;2.53;62.44;101186.00;12244655;19;19970;-85
2024/01/06 18:13:40;;;;;;;;;;;4.20;56.50;;;2.49;62.38;101190.34;12247244;19;19907;-85
2024/01/06 18:17:41;;;;;;;;;;;4.20;56.50;;;2.49;62.33;101187.78;12042706;19;3941959;-84
2024/01/06 18:21:43;;;;;;;;;;;4.30;56.20;;;2.50;62.30;101201.50;12249375;19;19935;-85
2024/01/06 18:25:44;;;;;;;;;;;4.30;56.20;;;2.51;62.43;101208.34;12245983;19;19921;-84
2024/01/06 18:29:47;;;;;;;;;;;4.10;55.90;;;2.42;62.47;101194.72;12247670;19;20598;-85
2024/01/06 18:33:49;;;;;;;;;;;4.20;56.20;;;2.39;62.30;101189.63;12247063;19;19919;-85